Time;durP1;ratioP1;P1;durP2;ratioP2;P2;SDS_P1;SDS_P2;PMS_P1;PMS_P2;Temp;Humidity;BMP_temperature;BMP_pressure;BME280_temperature;BME280_humidity;BME280_pressure;Samples;Min_cycle;Max_cycle;Signal;HPM_P1;HPM_P2
2020/12/30 00:00:49;;;;;;;3.30;2.17;;;4.20;94.20;;;;;;5006432;28;20061;-83
2020/12/30 00:03:15;;;;;;;2.65;1.95;;;4.10;94.30;;;;;;5026681;28;20048;-83
2020/12/30 00:05:41;;;;;;;3.03;2.35;;;4.10;94.30;;;;;;5026998;28;20136;-83
2020/12/30 00:08:07;;;;;;;2.75;2.03;;;4.10;94.20;;;;;;5023414;28;20050;-84
2020/12/30 00:10:33;;;;;;;2.63;2.05;;;4.10;94.20;;;;;;5026043;28;20044;-83
2020/12/30 00:12:59;;;;;;;2.72;2.13;;;4.10;94.30;;;;;;5039966;28;20048;-83
2020/12/30 00:15:25;;;;;;;2.90;2.10;;;4.10;94.10;;;;;;5032175;28;20132;-84
2020/12/30 00:17:51;;;;;;;3.60;2.22;;;4.00;94.30;;;;;;5026723;28;20565;-82
2020/12/30 00:20:20;;;;;;;3.63;2.70;;;4.00;94.20;;;;;;5024952;28;20075;-82
2020/12/30 00:22:47;;;;;;;3.85;2.60;;;4.10;94.10;;;;;;5025311;28;20077;-83
2020/12/30 00:25:14;;;;;;;4.00;2.67;;;4.10;94.10;;;;;;5025948;28;20069;-82
2020/12/30 00:27:42;;;;;;;2.90;2.00;;;4.00;94.30;;;;;;5026765;28;20049;-83
2020/12/30 00:30:10;;;;;;;2.42;1.98;;;4.00;94.40;;;;;;5021693;28;20075;-82
2020/12/30 00:32:36;;;;;;;3.13;2.00;;;3.90;94.50;;;;;;5026102;28;20049;-84
2020/12/30 00:35:04;;;;;;;4.45;2.88;;;3.90;94.60;;;;;;5022575;28;20486;-83
2020/12/30 00:37:29;;;;;;;2.45;2.17;;;3.90;94.70;;;;;;5025452;28;20089;-84
2020/12/30 00:39:55;;;;;;;3.78;2.30;;;3.90;94.80;;;;;;5026822;28;20494;-81
2020/12/30 00:42:21;;;;;;;3.35;2.45;;;3.90;94.80;;;;;;5026683;28;20063;-83
2020/12/30 00:44:47;;;;;;;3.53;2.35;;;3.90;94.70;;;;;;5024694;28;20041;-83
2020/12/30 00:47:14;;;;;;;3.40;2.40;;;3.90;94.60;;;;;;5028975;28;20501;-83
2020/12/30 00:49:40;;;;;;;3.83;2.85;;;4.00;94.50;;;;;;5025288;28;20041;-83
2020/12/30 00:52:08;;;;;;;3.55;2.95;;;4.00;94.60;;;;;;5024164;28;20048;-82
2020/12/30 00:54:34;;;;;;;4.60;3.40;;;4.10;94.50;;;;;;5029157;28;20065;-83
2020/12/30 00:57:00;;;;;;;5.50;3.50;;;4.10;94.60;;;;;;5029241;28;20125;-83
2020/12/30 00:59:25;;;;;;;5.18;3.45;;;4.00;94.80;;;;;;5029655;28;20065;-82
2020/12/30 01:01:52;;;;;;;5.10;3.60;;;4.00;94.90;;;;;;5037287;28;20168;-82
2020/12/30 01:04:21;;;;;;;6.03;3.85;;;4.10;94.90;;;;;;5030240;28;20702;-83
2020/12/30 01:06:52;;;;;;;5.97;4.50;;;4.10;94.80;;;;;;5027410;28;20132;-82
2020/12/30 01:09:19;;;;;;;9.57;6.68;;;4.00;94.90;;;;;;5030066;28;20053;-82
2020/12/30 01:11:45;;;;;;;7.18;5.15;;;4.10;95.10;;;;;;5029415;28;20052;-83
2020/12/30 01:14:12;;;;;;;7.63;5.35;;;4.00;95.10;;;;;;5027750;28;20061;-83
2020/12/30 01:16:38;;;;;;;8.60;6.03;;;4.10;95.20;;;;;;5028829;28;20045;-82
2020/12/30 01:19:06;;;;;;;8.43;6.45;;;4.00;95.10;;;;;;5028620;28;20049;-81
2020/12/30 01:21:38;;;;;;;8.77;6.38;;;4.00;95.20;;;;;;5028111;28;20049;-82
2020/12/30 01:24:04;;;;;;;8.25;6.55;;;4.00;95.30;;;;;;5027058;28;20507;-83
2020/12/30 01:26:30;;;;;;;9.70;7.70;;;3.90;95.30;;;;;;5029416;28;20073;-82
2020/12/30 01:28:55;;;;;;;9.13;6.82;;;3.90;95.30;;;;;;5029591;28;20401;-81
2020/12/30 01:31:29;;;;;;;9.23;7.47;;;3.80;95.30;;;;;;5026785;28;20119;-82
2020/12/30 01:33:55;;;;;;;11.10;7.80;;;3.80;95.30;;;;;;5028973;28;20068;-83
2020/12/30 01:36:22;;;;;;;10.55;7.88;;;3.80;95.30;;;;;;5026495;28;20047;-82
2020/12/30 01:38:48;;;;;;;10.85;8.15;;;3.80;95.30;;;;;;5028696;28;20048;-82
2020/12/30 01:41:14;;;;;;;11.60;9.25;;;3.90;95.20;;;;;;5028431;28;20045;-83
2020/12/30 01:43:40;;;;;;;13.35;9.10;;;3.90;95.10;;;;;;5027029;28;20041;-82
2020/12/30 01:46:06;;;;;;;10.93;8.15;;;3.90;95.20;;;;;;5027394;28;20456;-83
2020/12/30 01:48:34;;;;;;;11.93;8.25;;;3.90;95.20;;;;;;5030094;28;20056;-80
2020/12/30 01:51:01;;;;;;;11.25;8.35;;;3.90;95.10;;;;;;5022699;28;20057;-81
2020/12/30 01:53:26;;;;;;;10.18;8.00;;;4.00;95.20;;;;;;5025727;28;20498;-82
2020/12/30 01:55:54;;;;;;;11.15;7.95;;;4.00;95.00;;;;;;5045220;28;20056;-82
2020/12/30 01:58:20;;;;;;;10.23;7.80;;;3.90;94.80;;;;;;5026075;28;20485;-83
2020/12/30 02:00:48;;;;;;;11.07;8.05;;;3.90;94.90;;;;;;5026578;28;20139;-83
2020/12/30 02:03:15;;;;;;;11.45;7.95;;;3.80;95.00;;;;;;5023289;28;20057;-82
2020/12/30 02:05:42;;;;;;;9.77;7.57;;;3.80;95.20;;;;;;5022682;28;30499;-83
2020/12/30 02:08:09;;;;;;;10.85;7.60;;;3.80;95.10;;;;;;5025012;28;20049;-82
2020/12/30 02:10:35;;;;;;;9.93;7.50;;;3.80;95.10;;;;;;5041197;28;20110;-82
2020/12/30 02:13:01;;;;;;;8.75;6.40;;;3.80;95.10;;;;;;5025702;28;20486;-81
2020/12/30 02:15:29;;;;;;;11.70;8.07;;;3.80;95.20;;;;;;5023065;28;20413;-82
2020/12/30 02:17:56;;;;;;;8.52;6.85;;;3.80;95.10;;;;;;5022572;28;20045;-82
2020/12/30 02:20:22;;;;;;;10.43;7.78;;;3.80;95.20;;;;;;5025181;28;20365;-82
2020/12/30 02:23:07;;;;;;;11.10;7.18;;;3.90;95.40;;;;;;5025398;28;20058;-83
2020/12/30 02:25:33;;;;;;;9.77;6.30;;;3.80;95.00;;;;;;5013146;28;20045;-82
2020/12/30 02:27:59;;;;;;;7.90;6.32;;;3.90;95.10;;;;;;5027491;28;20076;-81
2020/12/30 02:30:25;;;;;;;8.65;6.43;;;3.90;95.10;;;;;;5026358;28;20069;-83
2020/12/30 02:32:51;;;;;;;9.35;7.00;;;4.00;95.00;;;;;;5042013;28;20045;-82
2020/12/30 02:35:21;;;;;;;8.93;6.10;;;3.90;94.80;;;;;;5027458;28;20806;-83
2020/12/30 02:37:47;;;;;;;9.07;6.30;;;3.90;94.80;;;;;;5029871;28;20124;-83
2020/12/30 02:40:13;;;;;;;8.65;6.45;;;3.90;94.90;;;;;;5035204;28;20128;-82
2020/12/30 02:42:39;;;;;;;7.78;6.05;;;3.80;94.90;;;;;;5029061;28;20056;-82
2020/12/30 02:45:07;;;;;;;9.30;6.57;;;3.80;94.90;;;;;;5027676;28;20448;-83
2020/12/30 02:47:33;;;;;;;7.70;6.38;;;3.90;94.80;;;;;;5041786;28;20128;-83
2020/12/30 02:50:00;;;;;;;10.10;7.07;;;4.00;94.80;;;;;;5027606;28;20049;-81
2020/12/30 02:52:27;;;;;;;10.63;8.18;;;4.00;94.70;;;;;;5027222;28;20569;-83
2020/12/30 02:54:52;;;;;;;11.95;7.57;;;3.90;94.80;;;;;;5041663;28;20050;-82
2020/12/30 02:57:19;;;;;;;10.70;7.20;;;3.90;94.80;;;;;;5043499;28;20859;-82
2020/12/30 02:59:45;;;;;;;10.95;7.90;;;4.00;94.80;;;;;;5038959;28;20084;-83
2020/12/30 03:02:10;;;;;;;10.27;7.75;;;3.90;94.70;;;;;;5025553;28;20457;-82
2020/12/30 03:04:36;;;;;;;9.15;7.50;;;4.00;94.90;;;;;;5028149;28;20084;-83
2020/12/30 03:07:03;;;;;;;8.77;6.28;;;3.90;95.00;;;;;;5023009;28;20453;-80
2020/12/30 03:09:30;;;;;;;9.38;6.75;;;3.90;95.10;;;;;;5019815;28;20049;-83
2020/12/30 03:11:55;;;;;;;8.75;6.70;;;3.90;95.10;;;;;;5043402;28;20489;-82
2020/12/30 03:14:22;;;;;;;8.13;5.47;;;3.90;95.00;;;;;;5022614;28;20064;-81
2020/12/30 03:16:48;;;;;;;9.55;6.95;;;3.90;95.10;;;;;;5021138;28;20049;-82
2020/12/30 03:19:14;;;;;;;10.80;6.65;;;4.00;95.00;;;;;;5027006;28;20099;-83
2020/12/30 03:21:39;;;;;;;8.70;6.32;;;4.00;95.00;;;;;;5037395;28;20042;-82
2020/12/30 03:24:06;;;;;;;9.05;6.40;;;3.90;95.10;;;;;;5026195;28;20401;-82
2020/12/30 03:26:33;;;;;;;9.85;6.60;;;3.90;95.10;;;;;;5028467;28;20051;-82
2020/12/30 03:29:01;;;;;;;10.63;7.35;;;3.90;95.10;;;;;;5025468;28;20053;-82
2020/12/30 03:31:28;;;;;;;8.13;6.30;;;3.90;95.10;;;;;;5041147;28;20099;-82
2020/12/30 03:33:56;;;;;;;8.50;5.90;;;3.90;95.20;;;;;;5028814;28;20132;-82
2020/12/30 03:36:21;;;;;;;8.80;6.60;;;3.80;95.10;;;;;;5023226;28;20049;-81
2020/12/30 03:38:47;;;;;;;7.80;5.55;;;3.90;95.10;;;;;;5027437;28;20394;-83
2020/12/30 03:41:13;;;;;;;7.68;6.28;;;3.90;95.00;;;;;;5026949;28;20054;-83
2020/12/30 03:43:39;;;;;;;8.70;5.70;;;3.90;95.00;;;;;;5027464;28;20045;-83
2020/12/30 03:46:05;;;;;;;7.50;6.05;;;4.00;94.90;;;;;;5037999;28;20088;-81
2020/12/30 03:48:30;;;;;;;7.55;5.97;;;4.00;94.80;;;;;;5028213;28;20140;-82
2020/12/30 03:50:56;;;;;;;8.35;6.18;;;4.00;94.70;;;;;;5026062;28;20096;-83
2020/12/30 03:53:22;;;;;;;9.27;5.65;;;4.00;94.80;;;;;;5026602;28;20041;-83
2020/12/30 03:55:47;;;;;;;6.30;4.60;;;4.10;94.70;;;;;;5026998;28;20132;-83
2020/12/30 03:58:13;;;;;;;8.75;5.50;;;4.10;94.70;;;;;;5028042;28;20091;-82
2020/12/30 04:00:39;;;;;;;7.53;5.45;;;4.10;94.70;;;;;;5024654;28;20049;-83
2020/12/30 04:03:05;;;;;;;7.07;5.10;;;4.10;94.70;;;;;;5040788;28;20462;-81
2020/12/30 04:05:30;;;;;;;6.82;5.15;;;4.20;94.50;;;;;;5039117;28;20505;-82
2020/12/30 04:07:56;;;;;;;6.78;5.15;;;4.10;94.60;;;;;;5036901;28;20055;-83
2020/12/30 04:10:22;;;;;;;9.27;5.03;;;4.10;94.70;;;;;;5027155;28;20049;-82
2020/12/30 04:12:48;;;;;;;7.90;5.32;;;4.10;94.80;;;;;;5037542;28;20119;-82
2020/12/30 04:15:13;;;;;;;7.10;4.53;;;4.10;94.80;;;;;;5033069;28;20534;-82
2020/12/30 04:17:39;;;;;;;7.28;4.90;;;4.10;94.80;;;;;;5025906;28;20045;-81
2020/12/30 04:20:05;;;;;;;5.60;4.03;;;4.10;94.70;;;;;;5025599;28;20048;-81
2020/12/30 04:22:31;;;;;;;6.93;4.88;;;4.10;94.80;;;;;;5025648;28;20132;-82
2020/12/30 04:24:56;;;;;;;6.80;4.80;;;4.10;94.80;;;;;;5030416;28;20128;-82
2020/12/30 04:27:23;;;;;;;7.22;4.50;;;4.10;94.80;;;;;;5026376;28;20054;-82
2020/12/30 04:29:49;;;;;;;5.78;4.22;;;4.00;94.80;;;;;;5026335;28;20051;-83
2020/12/30 04:32:14;;;;;;;6.38;4.53;;;4.00;95.00;;;;;;5026909;28;20060;-82
2020/12/30 04:34:40;;;;;;;5.07;3.85;;;4.00;95.00;;;;;;5024256;28;21541;-82
2020/12/30 04:37:06;;;;;;;6.50;4.18;;;4.10;95.00;;;;;;5025144;28;20103;-80
2020/12/30 04:39:32;;;;;;;5.75;3.92;;;4.00;95.00;;;;;;5027789;28;20038;-82
2020/12/30 04:41:59;;;;;;;5.10;3.88;;;4.00;95.00;;;;;;5026969;28;20049;-83
2020/12/30 04:44:31;;;;;;;6.22;3.40;;;4.00;95.10;;;;;;5025439;28;20037;-82
2020/12/30 04:46:58;;;;;;;4.65;3.25;;;4.00;95.10;;;;;;5025358;28;20112;-82
2020/12/30 04:49:24;;;;;;;5.07;3.10;;;3.90;95.20;;;;;;5026461;28;20046;-82
2020/12/30 04:51:52;;;;;;;4.72;3.63;;;4.00;95.10;;;;;;5025061;28;20046;-83
2020/12/30 04:54:20;;;;;;;4.10;2.85;;;3.90;95.00;;;;;;5026003;28;20123;-83
2020/12/30 04:56:57;;;;;;;4.10;2.45;;;3.90;95.10;;;;;;5042104;28;20095;-83
2020/12/30 04:59:26;;;;;;;4.05;2.67;;;4.00;95.10;;;;;;5025870;28;20045;-82
2020/12/30 05:02:05;;;;;;;4.63;2.30;;;4.00;95.10;;;;;;5025524;28;20073;-81
2020/12/30 05:04:32;;;;;;;3.15;2.30;;;4.00;94.90;;;;;;5024421;28;20053;-82
2020/12/30 05:07:04;;;;;;;4.15;2.58;;;4.10;94.90;;;;;;5039518;28;20128;-82
2020/12/30 05:09:32;;;;;;;3.80;2.42;;;4.00;95.00;;;;;;5023625;28;20670;-82
2020/12/30 05:11:57;;;;;;;3.97;2.55;;;3.90;95.10;;;;;;5039541;28;20347;-83
2020/12/30 05:14:23;;;;;;;5.13;3.25;;;3.90;95.20;;;;;;5026092;28;20058;-82
2020/12/30 05:16:49;;;;;;;4.47;3.28;;;3.90;95.20;;;;;;5027298;28;20047;-83
2020/12/30 05:19:15;;;;;;;5.30;3.50;;;3.90;95.20;;;;;;5038854;28;20049;-82
2020/12/30 05:21:41;;;;;;;5.30;3.30;;;3.90;95.20;;;;;;5026667;28;20052;-83
2020/12/30 05:24:08;;;;;;;7.03;4.05;;;3.90;95.30;;;;;;5026124;28;20136;-84
2020/12/30 05:26:35;;;;;;;5.15;3.72;;;3.90;95.30;;;;;;5036611;28;20044;-82
2020/12/30 05:29:04;;;;;;;12.10;9.88;;;3.90;95.30;;;;;;5040517;28;20060;-82
2020/12/30 05:31:30;;;;;;;5.50;4.10;;;3.90;95.40;;;;;;5041292;28;20046;-82
2020/12/30 05:33:55;;;;;;;6.70;4.20;;;3.90;95.40;;;;;;5026307;28;20051;-82
2020/12/30 05:36:25;;;;;;;5.47;3.90;;;3.90;95.50;;;;;;5036931;28;20068;-82
2020/12/30 05:38:51;;;;;;;5.15;3.88;;;3.90;95.50;;;;;;5035205;28;20053;-83
2020/12/30 05:41:21;;;;;;;7.40;4.18;;;3.90;95.50;;;;;;5033691;28;20054;-82
2020/12/30 05:43:46;;;;;;;6.35;4.40;;;3.90;95.50;;;;;;5029893;28;20049;-83
2020/12/30 05:46:27;;;;;;;5.70;4.10;;;3.90;95.60;;;;;;5028416;28;20421;-81
2020/12/30 05:48:53;;;;;;;7.65;4.93;;;3.90;95.60;;;;;;5029225;28;20053;-84
2020/12/30 05:51:29;;;;;;;7.00;4.50;;;3.90;95.40;;;;;;5043230;28;20044;-83
2020/12/30 05:54:13;;;;;;;7.25;4.55;;;4.00;95.50;;;;;;5029626;28;20072;-85
2020/12/30 05:56:40;;;;;;;8.63;4.82;;;4.00;95.40;;;;;;5029577;28;20493;-85
2020/12/30 05:59:06;;;;;;;7.63;5.03;;;4.00;95.30;;;;;;5042830;28;20378;-85
2020/12/30 06:01:35;;;;;;;10.05;5.45;;;4.00;95.30;;;;;;5029225;28;20046;-85
2020/12/30 06:04:20;;;;;;;7.97;5.30;;;4.00;95.40;;;;;;5028126;28;20118;-86
2020/12/30 06:06:47;;;;;;;7.93;4.67;;;4.00;95.30;;;;;;5028570;28;20057;-86
2020/12/30 06:09:18;;;;;;;8.32;5.57;;;4.00;95.40;;;;;;5044173;28;20106;-82
2020/12/30 06:11:52;;;;;;;8.38;5.35;;;4.00;95.50;;;;;;5028856;28;20049;-86
2020/12/30 06:14:20;;;;;;;8.43;6.18;;;3.90;95.50;;;;;;5044169;28;20037;-84
2020/12/30 06:16:46;;;;;;;8.50;5.80;;;3.90;95.50;;;;;;5030045;28;20041;-83
2020/12/30 06:19:15;;;;;;;10.48;6.38;;;4.00;95.60;;;;;;5034075;28;20148;-81
2020/12/30 06:21:45;;;;;;;8.27;5.90;;;4.00;95.40;;;;;;5024126;28;20464;-85
2020/12/30 06:24:13;;;;;;;9.65;7.32;;;4.00;95.50;;;;;;5027426;28;20124;-83
2020/12/30 06:26:40;;;;;;;7.38;5.53;;;4.00;95.50;;;;;;5030296;28;20049;-84
2020/12/30 06:29:16;;;;;;;9.13;5.82;;;4.00;95.50;;;;;;5033912;28;20490;-84
2020/12/30 06:31:49;;;;;;;8.15;5.38;;;4.00;95.50;;;;;;5018617;28;20088;-83
2020/12/30 06:34:18;;;;;;;6.22;4.80;;;4.00;95.60;;;;;;5028265;28;20060;-82
2020/12/30 06:36:44;;;;;;;8.48;4.50;;;4.00;95.50;;;;;;5028712;28;20058;-84
2020/12/30 06:39:22;;;;;;;5.95;4.40;;;4.00;95.50;;;;;;5026925;28;20516;-84
2020/12/30 06:41:56;;;;;;;6.45;4.00;;;4.00;95.60;;;;;;5022737;28;20390;-84
2020/12/30 06:44:35;;;;;;;6.50;4.20;;;4.00;95.60;;;;;;5025135;28;20056;-83
2020/12/30 06:47:02;;;;;;;7.95;4.43;;;4.00;95.50;;;;;;5027804;28;20041;-84
2020/12/30 06:49:28;;;;;;;7.40;4.20;;;4.00;95.50;;;;;;5028486;28;20045;-83
2020/12/30 06:51:54;;;;;;;6.70;4.40;;;4.00;95.80;;;;;;5028442;28;20072;-84
2020/12/30 06:54:19;;;;;;;7.43;4.53;;;4.00;95.50;;;;;;5026233;28;20034;-84
2020/12/30 06:56:47;;;;;;;5.72;3.97;;;4.00;95.50;;;;;;5044618;28;20124;-83
2020/12/30 06:59:17;;;;;;;5.75;4.20;;;4.00;95.60;;;;;;5026776;28;20520;-85
2020/12/30 07:02:04;;;;;;;8.20;4.57;;;4.00;95.60;;;;;;5024749;28;20489;-85
2020/12/30 07:04:31;;;;;;;6.18;4.68;;;4.00;95.60;;;;;;5009213;28;20077;-84
2020/12/30 07:06:58;;;;;;;8.18;4.07;;;4.00;95.60;;;;;;5043274;28;20060;-83
2020/12/30 07:09:34;;;;;;;6.57;3.60;;;4.00;95.70;;;;;;5031954;28;20110;-84
2020/12/30 07:12:02;;;;;;;5.85;3.63;;;3.90;95.80;;;;;;5042657;28;20053;-84
2020/12/30 07:14:30;;;;;;;5.63;4.10;;;3.90;95.80;;;;;;5027298;28;20052;-84
2020/12/30 07:16:57;;;;;;;6.25;3.72;;;3.90;95.80;;;;;;5026622;28;20091;-84
2020/12/30 07:19:31;;;;;;;16.83;10.30;;;4.00;95.70;;;;;;5024435;28;21411;-83
2020/12/30 07:21:58;;;;;;;5.13;3.28;;;4.00;95.70;;;;;;5025038;28;20045;-84
2020/12/30 07:24:39;;;;;;;5.55;3.33;;;4.00;95.70;;;;;;5028279;28;20064;-84
2020/12/30 07:27:09;;;;;;;4.63;3.00;;;4.00;95.70;;;;;;5033846;28;20046;-84
2020/12/30 07:29:35;;;;;;;5.03;3.20;;;4.00;95.70;;;;;;5027873;28;20049;-84
2020/12/30 07:32:03;;;;;;;4.03;2.85;;;4.00;95.60;;;;;;5028821;28;20409;-84
2020/12/30 07:34:40;;;;;;;4.85;2.70;;;4.00;95.70;;;;;;5024228;28;20077;-85
2020/12/30 07:37:07;;;;;;;4.75;2.80;;;4.10;95.70;;;;;;5025629;28;20065;-83
2020/12/30 07:39:38;;;;;;;4.28;2.80;;;4.10;95.60;;;;;;5044202;28;20049;-84
2020/12/30 07:42:08;;;;;;;4.18;2.80;;;4.00;95.70;;;;;;5026994;28;20042;-85
2020/12/30 07:44:34;;;;;;;4.25;2.20;;;4.00;95.70;;;;;;5025973;28;20452;-84
2020/12/30 07:47:04;;;;;;;5.28;2.75;;;4.10;95.80;;;;;;5028957;28;20049;-84
2020/12/30 07:49:31;;;;;;;4.45;2.22;;;4.00;95.80;;;;;;5025287;28;20057;-85
2020/12/30 07:51:59;;;;;;;3.53;2.03;;;4.10;95.80;;;;;;5026556;28;20052;-84
2020/12/30 07:54:27;;;;;;;4.07;1.95;;;4.00;95.80;;;;;;5026353;28;20124;-83
2020/12/30 07:57:02;;;;;;;4.13;2.10;;;4.10;95.80;;;;;;5026243;28;20042;-84
2020/12/30 07:59:29;;;;;;;4.00;3.03;;;4.10;95.80;;;;;;5026009;28;20063;-84
2020/12/30 08:01:58;;;;;;;4.38;2.30;;;4.10;95.80;;;;;;5041605;28;20034;-84
2020/12/30 08:04:25;;;;;;;3.22;2.00;;;4.10;95.80;;;;;;5025982;28;20049;-84
2020/12/30 08:06:51;;;;;;;4.20;2.03;;;4.10;95.80;;;;;;5028318;28;20476;-84
2020/12/30 08:09:17;;;;;;;4.30;2.30;;;4.10;95.70;;;;;;5026247;28;20056;-84
2020/12/30 08:11:54;;;;;;;4.10;2.05;;;4.10;95.80;;;;;;5026831;28;20045;-83
2020/12/30 08:14:22;;;;;;;2.83;1.85;;;4.10;95.70;;;;;;5026190;28;20096;-82
2020/12/30 08:16:55;;;;;;;4.28;2.10;;;4.10;95.80;;;;;;5041282;28;20095;-84
2020/12/30 08:19:34;;;;;;;2.83;2.10;;;4.10;95.70;;;;;;5025369;28;20128;-82
2020/12/30 08:22:09;;;;;;;3.33;2.33;;;4.10;95.70;;;;;;5015082;28;20131;-84
2020/12/30 08:24:40;;;;;;;3.83;2.20;;;4.20;95.60;;;;;;5024965;28;20103;-84
2020/12/30 08:27:06;;;;;;;4.25;2.33;;;4.30;95.40;;;;;;5025802;28;20096;-84
2020/12/30 08:29:38;;;;;;;2.83;2.10;;;4.30;95.40;;;;;;5026272;28;20054;-84
2020/12/30 08:32:32;;;;;;;3.35;2.50;;;4.30;95.30;;;;;;5041047;28;20049;-84
2020/12/30 08:35:17;;;;;;;3.28;2.33;;;4.30;95.40;;;;;;5028839;28;20142;-84
2020/12/30 08:37:45;;;;;;;3.80;2.38;;;4.20;95.40;;;;;;5025288;28;20038;-84
2020/12/30 08:40:13;;;;;;;3.42;2.30;;;4.20;95.50;;;;;;5027744;28;20081;-84
2020/12/30 08:43:00;;;;;;;7.13;4.85;;;4.20;95.50;;;;;;5026480;28;20065;-84
2020/12/30 08:45:34;;;;;;;3.95;2.67;;;4.30;95.60;;;;;;5040142;28;20056;-84
2020/12/30 08:48:19;;;;;;;3.95;2.45;;;4.30;95.50;;;;;;5026775;28;20103;-84
2020/12/30 08:50:46;;;;;;;3.22;2.40;;;4.40;95.40;;;;;;5024286;28;20057;-84
2020/12/30 08:53:13;;;;;;;4.43;2.20;;;4.40;95.10;;;;;;5026387;28;20050;-84
2020/12/30 08:55:39;;;;;;;4.95;2.20;;;4.40;95.10;;;;;;5026571;28;20065;-84
2020/12/30 08:58:05;;;;;;;4.00;2.08;;;4.40;95.10;;;;;;5025659;28;20045;-84
2020/12/30 09:00:38;;;;;;;4.70;2.13;;;4.40;95.10;;;;;;5025015;28;20067;-84
2020/12/30 09:03:12;;;;;;;2.75;1.90;;;4.40;95.20;;;;;;5040683;28;20053;-84
2020/12/30 09:05:38;;;;;;;2.72;2.03;;;4.40;95.30;;;;;;5041120;28;20141;-84
2020/12/30 09:08:15;;;;;;;4.95;2.13;;;4.30;95.30;;;;;;5027361;28;20072;-84
2020/12/30 09:10:42;;;;;;;3.33;2.17;;;4.40;95.30;;;;;;5038855;28;20442;-84
2020/12/30 09:13:15;;;;;;;3.95;2.47;;;4.40;95.30;;;;;;5026526;28;20060;-84
2020/12/30 09:15:43;;;;;;;4.70;2.40;;;4.50;95.30;;;;;;5026944;28;20559;-84
2020/12/30 09:18:11;;;;;;;4.10;2.95;;;4.50;95.20;;;;;;5029938;28;20043;-84
2020/12/30 09:20:37;;;;;;;6.50;3.03;;;4.50;95.10;;;;;;5044281;28;20045;-84
2020/12/30 09:23:04;;;;;;;4.38;2.70;;;4.50;95.10;;;;;;5030458;28;20056;-84
2020/12/30 09:25:32;;;;;;;4.55;2.70;;;4.50;95.10;;;;;;5043791;28;20056;-83
2020/12/30 09:27:59;;;;;;;3.47;2.80;;;4.60;95.00;;;;;;5030410;28;20050;-84
2020/12/30 09:30:27;;;;;;;4.57;3.00;;;4.60;94.80;;;;;;5029052;28;20485;-82
2020/12/30 09:32:55;;;;;;;5.38;3.20;;;4.60;94.90;;;;;;5028695;28;20046;-84
2020/12/30 09:35:29;;;;;;;3.53;2.50;;;4.60;95.00;;;;;;5028872;28;20433;-84
2020/12/30 09:37:57;;;;;;;7.13;5.30;;;4.60;94.90;;;;;;5030359;28;20060;-84
2020/12/30 09:40:24;;;;;;;4.00;3.15;;;4.60;95.20;;;;;;5044450;28;20053;-83
2020/12/30 09:42:50;;;;;;;4.07;2.75;;;4.60;95.00;;;;;;5043462;28;20497;-84
2020/12/30 09:45:20;;;;;;;4.10;2.60;;;4.60;95.10;;;;;;5030659;28;20111;-84
2020/12/30 09:47:47;;;;;;;3.90;2.90;;;4.60;95.20;;;;;;5028080;28;20048;-84
2020/12/30 09:50:17;;;;;;;5.45;2.80;;;4.60;95.20;;;;;;5044895;28;20058;-83
2020/12/30 09:52:45;;;;;;;3.28;2.50;;;4.60;95.20;;;;;;5027991;28;20045;-84
2020/12/30 09:55:12;;;;;;;3.60;2.53;;;4.60;95.20;;;;;;5028660;28;20053;-84
2020/12/30 09:57:38;;;;;;;4.57;2.58;;;4.70;95.20;;;;;;5029518;28;20045;-85
2020/12/30 10:00:06;;;;;;;3.97;2.60;;;4.60;95.20;;;;;;5042593;28;20049;-85
2020/12/30 10:02:32;;;;;;;3.70;2.63;;;4.70;95.20;;;;;;5027664;28;20065;-85
2020/12/30 10:04:58;;;;;;;3.78;2.00;;;4.70;95.20;;;;;;5028982;28;20057;-85
2020/12/30 10:07:25;;;;;;;3.17;2.38;;;4.80;95.20;;;;;;5029989;28;20057;-82
2020/12/30 10:09:52;;;;;;;4.28;2.70;;;4.80;95.20;;;;;;5028930;28;20397;-85
2020/12/30 10:12:20;;;;;;;3.55;2.42;;;4.90;95.20;;;;;;5029875;28;20045;-85
2020/12/30 10:14:46;;;;;;;3.63;2.40;;;4.90;95.20;;;;;;5028756;28;20045;-85
2020/12/30 10:17:12;;;;;;;3.40;2.38;;;5.10;95.20;;;;;;5027772;28;20058;-85
2020/12/30 10:19:37;;;;;;;3.15;2.70;;;5.20;95.10;;;;;;5028098;28;20072;-84
2020/12/30 10:22:10;;;;;;;3.90;2.70;;;5.40;94.80;;;;;;5028994;28;20053;-85
2020/12/30 10:24:37;;;;;;;4.82;3.30;;;5.40;94.70;;;;;;5036925;28;20107;-85
2020/12/30 10:27:03;;;;;;;3.42;2.70;;;5.30;94.60;;;;;;5040908;28;20117;-85
2020/12/30 10:29:30;;;;;;;4.03;2.72;;;5.40;94.50;;;;;;5029339;28;20052;-85
2020/12/30 10:31:57;;;;;;;4.85;3.22;;;5.40;94.30;;;;;;5028220;28;20079;-84
2020/12/30 10:34:24;;;;;;;5.25;3.20;;;5.50;94.10;;;;;;5022844;28;20050;-83
2020/12/30 10:36:50;;;;;;;5.38;3.28;;;5.60;94.10;;;;;;5030681;28;20052;-85
2020/12/30 10:39:16;;;;;;;4.28;3.10;;;5.70;93.90;;;;;;5028755;28;20053;-85
2020/12/30 10:41:41;;;;;;;5.00;3.50;;;5.80;93.80;;;;;;5026597;28;20081;-85
2020/12/30 10:44:07;;;;;;;4.78;3.67;;;5.90;93.70;;;;;;5042816;28;20045;-85
2020/12/30 10:46:33;;;;;;;5.38;3.20;;;6.00;93.50;;;;;;5038887;28;20053;-85
2020/12/30 10:48:59;;;;;;;4.93;3.65;;;6.20;93.00;;;;;;5028155;28;20482;-82
2020/12/30 10:51:25;;;;;;;5.88;3.70;;;6.20;93.20;;;;;;5029959;28;20418;-80
2020/12/30 10:53:50;;;;;;;6.63;4.20;;;6.30;92.50;;;;;;5027793;28;20133;-85
2020/12/30 10:56:16;;;;;;;6.72;4.10;;;6.30;92.20;;;;;;5027981;28;20462;-84
2020/12/30 10:58:42;;;;;;;6.25;4.50;;;6.30;92.30;;;;;;5026950;28;20544;-85
2020/12/30 11:01:09;;;;;;;5.38;4.35;;;6.20;92.50;;;;;;5028836;28;20468;-84
2020/12/30 11:03:35;;;;;;;5.40;4.78;;;6.10;92.40;;;;;;5034334;28;20061;-82
2020/12/30 11:06:01;;;;;;;7.18;5.13;;;6.20;92.20;;;;;;5028588;28;20041;-82
2020/12/30 11:08:28;;;;;;;6.18;4.72;;;6.10;92.80;;;;;;5026863;28;20460;-80
2020/12/30 11:10:57;;;;;;;7.22;5.90;;;6.10;92.30;;;;;;5042420;28;20045;-82
2020/12/30 11:13:24;;;;;;;6.82;4.70;;;6.10;92.20;;;;;;5028201;28;20045;-80
2020/12/30 11:15:49;;;;;;;6.95;5.28;;;6.10;92.30;;;;;;5027936;28;20057;-82
2020/12/30 11:18:15;;;;;;;6.82;5.65;;;6.00;92.30;;;;;;5027082;28;20133;-82
2020/12/30 11:20:41;;;;;;;7.97;5.95;;;6.00;92.00;;;;;;5042287;28;20053;-82
2020/12/30 11:23:07;;;;;;;8.77;6.30;;;6.00;92.20;;;;;;5012238;28;20042;-83
2020/12/30 11:25:32;;;;;;;7.47;5.78;;;6.00;92.20;;;;;;5024740;28;20048;-82
2020/12/30 11:28:01;;;;;;;8.57;6.13;;;5.90;92.40;;;;;;5042877;28;20820;-82
2020/12/30 11:30:27;;;;;;;7.13;5.82;;;5.90;92.40;;;;;;5027444;28;20072;-80
2020/12/30 11:32:53;;;;;;;8.02;7.03;;;5.90;92.50;;;;;;5027507;28;20049;-83
2020/12/30 11:35:19;;;;;;;8.70;7.03;;;5.90;92.60;;;;;;5026345;28;20117;-81
2020/12/30 11:37:45;;;;;;;7.25;6.45;;;5.90;92.50;;;;;;5026434;28;20132;-82
2020/12/30 11:40:11;;;;;;;7.82;6.45;;;6.00;92.30;;;;;;5030079;28;20409;-83
2020/12/30 11:42:37;;;;;;;6.90;6.20;;;6.00;92.20;;;;;;5026369;28;20092;-82
2020/12/30 11:45:03;;;;;;;6.78;5.40;;;6.00;92.30;;;;;;5027926;28;20049;-81
2020/12/30 11:47:29;;;;;;;6.45;5.85;;;6.00;92.30;;;;;;5028479;28;20048;-80
2020/12/30 11:49:55;;;;;;;6.50;5.72;;;6.00;92.60;;;;;;5016025;28;20056;-82
2020/12/30 11:52:21;;;;;;;6.05;5.20;;;6.00;92.60;;;;;;5028546;28;20050;-83
2020/12/30 11:54:47;;;;;;;5.75;5.03;;;6.10;92.50;;;;;;5033210;28;20169;-83
2020/12/30 11:57:13;;;;;;;7.45;5.03;;;6.10;92.50;;;;;;5027004;28;20046;-86
2020/12/30 11:59:38;;;;;;;5.30;4.80;;;6.20;91.90;;;;;;5025607;28;20050;-83
2020/12/30 12:02:04;;;;;;;5.15;4.60;;;6.20;91.90;;;;;;5026325;28;20396;-83
2020/12/30 12:04:32;;;;;;;6.18;4.20;;;6.10;92.00;;;;;;5019275;28;20049;-81
2020/12/30 12:07:01;;;;;;;5.22;4.38;;;6.20;91.90;;;;;;5025053;28;20050;-83
2020/12/30 12:09:28;;;;;;;5.55;4.53;;;6.20;92.00;;;;;;5023798;28;20056;-81
2020/12/30 12:11:54;;;;;;;5.20;4.63;;;6.20;92.10;;;;;;5024489;28;20049;-83
2020/12/30 12:14:21;;;;;;;4.70;4.00;;;6.20;91.90;;;;;;5025515;28;20559;-84
2020/12/30 12:16:57;;;;;;;5.70;4.30;;;6.40;91.80;;;;;;5022540;28;20115;-84
2020/12/30 12:19:24;;;;;;;5.10;4.10;;;6.40;91.60;;;;;;5037563;28;20057;-82
2020/12/30 12:21:51;;;;;;;4.65;3.67;;;6.40;91.80;;;;;;5024575;28;20576;-81
2020/12/30 12:24:17;;;;;;;5.70;4.50;;;6.50;91.20;;;;;;5013236;28;20088;-83
2020/12/30 12:26:44;;;;;;;5.70;4.78;;;6.50;91.50;;;;;;5018218;28;20049;-82
2020/12/30 12:29:37;;;;;;;3.83;3.20;;;6.50;91.50;;;;;;5022183;28;20472;-83
2020/12/30 12:32:03;;;;;;;3.83;2.60;;;6.60;91.40;;;;;;5013573;28;20057;-84
2020/12/30 12:34:29;;;;;;;3.58;2.65;;;6.70;91.00;;;;;;5037341;28;20041;-81
2020/12/30 12:36:56;;;;;;;4.00;2.95;;;6.70;90.80;;;;;;5023630;28;20068;-83
2020/12/30 12:39:22;;;;;;;3.63;2.70;;;6.80;90.80;;;;;;5028552;28;20053;-84
2020/12/30 12:41:52;;;;;;;3.50;2.50;;;6.80;90.20;;;;;;5024425;28;20187;-85
2020/12/30 12:44:18;;;;;;;3.03;2.20;;;6.80;90.40;;;;;;5025629;28;20465;-85
2020/12/30 12:46:45;;;;;;;2.92;2.42;;;6.70;90.50;;;;;;5023903;28;20057;-85
2020/12/30 12:49:12;;;;;;;4.68;2.22;;;6.70;90.40;;;;;;5025377;28;20042;-85
2020/12/30 12:51:38;;;;;;;2.97;2.33;;;6.70;90.40;;;;;;5039686;28;20118;-84
2020/12/30 12:54:06;;;;;;;4.07;2.30;;;6.70;90.40;;;;;;5043218;28;20100;-84
2020/12/30 12:56:32;;;;;;;5.10;2.40;;;6.60;90.40;;;;;;5022036;28;20182;-82
2020/12/30 12:58:58;;;;;;;5.30;2.55;;;6.60;90.40;;;;;;5025944;28;20050;-84